Mercyville, Missouri
Current Conditions -  °F | °C
As of 9:55 AM on Monday 24 Nov 2014 (Local Time) from KIRK Reporting Station
Overcast Overcast  
Wind Chill: 20°   Ceiling: 2500
Heat Index: 31°   Visibility: 10mi
Dew Point: 24°   Wind: 15mph
Humidity: 76%   Direction: 270°W
Pressure: 29.6"   Gusts: NA
Location:  39.9225°N, 92.6337°W
Report Text: KIRK 241555Z AUTO 27013KT 10SM BKN025 OVC032 M01/M04 A2960 RMK AO2 PK WND 28027/1533 SLP033 T10061044
Loading
Personal Weather Stations






























Interactive Weather Map New forecast layout! Learn more

10-Day Weather Forecast

Advertisements
Track Severe Weather on mobile